Portada
METAR-TAF:

METAR-TAF

Aeropuertos :

Aeródromo de la Isla Wake

Wake Island, Estados Unidos

latitud: 19-17N, longitud: 166-39E, altitud: 4 m

Observación

El informe se hizo hace 42 minutos, a las 15:55 UTC
Viento 10 kt del este
Temperatura 25°C
Humedad 79%
Presión 1015 hPa
Visibilidad: 14.5 km
Cielo despejado

METAR: PWAK 191555Z AUTO 08010KT 9SM CLR 25/21 A2996 RMK AO2 SLP151 T02470214

Hora: 04:37 (16:37 UTC)

Pronóstico

El informe se hizo hace 2 horas y 37 minutos, a las 14:00 UTC
Pronóstico válido del 19 a las 14 UTC al 20 a las 20 UTC
Viento 12 kt del este con ráfagas de 18 kt
Visibilidad 10 km o más
Nubes dispersas a una altura de 2000 ft
Cielo nuboso a una altura de 6000 ft
Temporalmente
del 19 a las 14 UTC al 19 a las 19 UTC
Nubes dispersas a una altura de 1000 ft
Cielo nuboso a una altura de 2000 ft

TAF: PWAK 191400Z 1914/2020 09012G18KT 9999 SCT020 BKN060 QNH2996INS TEMPO 1914/1919 SCT010 BKN020 TX29/2003Z TN25/1915Z FOR MIL USE ONLY

Observaciones y pronósticos meteorológicos de más de 4000 aeropuertos (mensajes METAR y TAF).

Los puntos amarillos y rojos representan las estaciones disponibles.

Ponga el ratón en el punto deseado para ver el nombre de la estación.

Haga clic para ver las observaciones y los pronósticos meteorológicos.

Para cambiar el mapa : haga clic en los botones verdes con una cruz de color negro para hacer un zoom, en el botón verde con un guión para alejar o en las flechas verdes para mapas adyacentes.


METAR-TAF: